Cracovia, Polonia

12:55 AM CET on noiembrie 22, 2014 (GMT +0100)
John Paul II International / Krakow-Balice | Change Station
CLOSE
Current Station
Aeroport
Location: Krakow,
Elevation: 778 ft
Nearby Weather Stations

Elev 778 ft 50.08 °N, 19.80 °E | Updated 25 minutes ago

Mostly Cloudy
Cer în general noros
36 °F
Feels Like 36 °F
N
2
Vânt variabil Vânt from ENE

astăzi
High -- | Low -- °F
--% Chance of Precip.
Ieri
High -- | Low -- °F
Precip. -- inch
7:04 AM 3:48 PM
Semilună în descreştere, 0% visible
Presiunea 30.30 inch
Vizibilitatea 6.2 mile
Nori Few 800 ft
Cer în general noros 1700 ft
Punctul de rouă 34 °F
Umiditatea 93%
Precipitaţii 0.00 inch
Adâncimea zăpezii Not available.
UV 0 out of 12
Pollen Not available.
Calitatea aerului Not available.
Flu Activity Not available.
METAR EPKK 212330Z 06002KT 9999 FEW008 BKN017 02/01 Q1026

More Conditions Fewer Conditions

Presiunea 30.30 inch
Vizibilitatea 6.2 mile
Nori Few 800 ft
Cer în general noros 1700 ft
Punctul de rouă 34 °F
Umiditatea 93%
Precipitaţii 0.00 inch
Adâncimea zăpezii Not available.
UV 0 out of 12
Pollen Not available.
Calitatea aerului Not available.
Flu Activity Not available.
METAR EPKK 212330Z 06002KT 9999 FEW008 BKN017 02/01 Q1026

More Conditions Fewer Conditions

10-Day Weather Forecast

Almanac

Astronomie

Nov. 22, 2014 Răsărit Apus
Timpul Actual
Crepusculul Civil
Crepusculul nautic
Răsărit Astronomic
Luna
Durata zilei lumină
Lungimea zilei
Tomorrow will be .
, % of the Moon is Illuminated

Extremele de azi

Country Highs Country Lows

Community

WunderPhotos

Upload Photos

1,772,740 photos uploaded!

WunderBlogs® & News

Nearby

Calitatea aerului

  Calitatea aerului Index de calitate a aerului Poluat
Not available.

Adâncimea zapezii

Station Depth Elevation

Earthquake Activity

Oraş Distance Mag. Time & Date
Minimum magnitude displayed is 2.5.

Coastal Water Temperatures

Locul Temperatura

Nearby Weather Stations